createdAt,value
2019-05-17T10:45:15.134Z,17.06
2019-05-17T10:47:50.262Z,17.07
2019-05-17T10:50:23.929Z,17.06
2019-05-17T10:53:00.198Z,17.17
2019-05-17T10:55:32.825Z,17.27
2019-05-17T10:58:06.273Z,17.33
2019-05-17T11:00:41.442Z,17.33
2019-05-17T11:03:15.152Z,17.35
2019-05-17T11:05:50.261Z,17.37
2019-05-17T11:08:23.613Z,17.32
2019-05-17T11:10:59.433Z,17.28
2019-05-17T11:13:32.135Z,17.29
2019-05-17T11:16:05.536Z,17.29
2019-05-17T11:18:38.892Z,17.22
2019-05-17T11:21:13.099Z,17.22
2019-05-17T11:23:46.482Z,17.25
2019-05-17T11:26:19.875Z,17.32
2019-05-17T11:28:53.227Z,17.36
2019-05-17T11:31:26.629Z,17.40
2019-05-17T11:34:00.142Z,17.41
2019-05-17T11:36:33.582Z,17.43
2019-05-17T11:39:08.559Z,17.44
2019-05-17T11:41:42.356Z,17.43
2019-05-17T11:44:15.970Z,17.46
2019-05-17T11:46:50.226Z,17.44
2019-05-17T11:49:24.460Z,17.50
2019-05-17T11:51:58.308Z,17.56
2019-05-17T11:54:31.939Z,17.61
2019-05-17T11:57:05.415Z,17.63
2019-05-17T11:59:38.859Z,17.66
2019-05-17T12:02:15.781Z,17.62
2019-05-17T12:04:49.260Z,17.51
2019-05-17T12:07:23.062Z,17.49
2019-05-17T12:09:57.469Z,17.51
2019-05-17T12:12:31.027Z,17.45
2019-05-17T12:15:04.510Z,17.38
2019-05-17T12:17:37.984Z,17.35
2019-05-17T12:20:14.422Z,17.30
2019-05-17T12:22:47.831Z,17.26
2019-05-17T12:25:21.432Z,17.11
2019-05-17T12:27:54.858Z,17.06
2019-05-17T12:30:28.275Z,17.03
2019-05-17T12:33:01.625Z,16.93
2019-05-17T12:35:35.023Z,16.87
2019-05-17T12:38:08.420Z,16.80
2019-05-17T12:40:41.868Z,16.72
2019-05-17T12:43:15.316Z,16.55
2019-05-17T12:46:00.112Z,16.49
2019-05-17T12:48:25.738Z,16.38
2019-05-17T12:50:59.181Z,16.30
2019-05-17T12:53:33.985Z,16.27
2019-05-17T12:56:07.506Z,16.23
2019-05-17T12:58:41.953Z,16.24
2019-05-17T13:01:15.376Z,16.27
2019-05-17T13:03:48.848Z,16.30
2019-05-17T13:06:23.729Z,16.34
2019-05-17T13:08:57.161Z,16.39
2019-05-17T13:11:30.591Z,16.48
2019-05-17T13:14:04.040Z,16.47
2019-05-17T13:16:37.505Z,16.48
2019-05-17T13:19:11.473Z,16.49
2019-05-17T13:21:45.108Z,16.51
2019-05-17T13:24:18.598Z,16.59
2019-05-17T13:26:52.127Z,16.65
2019-05-17T13:29:25.604Z,16.70
2019-05-17T13:31:59.067Z,16.72
2019-05-17T13:34:32.555Z,16.65
2019-05-17T13:37:06.276Z,16.74
2019-05-17T13:39:41.070Z,16.74
2019-05-17T13:42:14.477Z,16.82
2019-05-17T13:44:47.872Z,16.82
2019-05-17T13:47:21.311Z,16.86
2019-05-17T13:49:54.708Z,16.95
2019-05-17T13:52:28.135Z,17.07
2019-05-17T13:55:02.400Z,17.22
2019-05-17T13:57:36.115Z,17.23
2019-05-17T14:00:11.557Z,17.26
2019-05-17T14:02:44.978Z,17.28
2019-05-17T14:05:18.614Z,17.28
2019-05-17T14:07:52.234Z,17.29
2019-05-17T14:10:28.715Z,17.38
2019-05-17T14:13:00.726Z,17.45
2019-05-17T14:15:34.369Z,17.49
2019-05-17T14:18:08.441Z,17.51
2019-05-17T14:20:41.907Z,17.56
2019-05-17T14:23:15.344Z,17.57
2019-05-17T14:25:48.776Z,17.72
2019-05-17T14:28:22.258Z,17.83
2019-05-17T14:30:57.065Z,17.90
2019-05-17T14:33:31.577Z,17.83
2019-05-17T14:36:04.952Z,17.93
2019-05-17T14:38:38.453Z,17.91
2019-05-17T14:41:11.880Z,17.96
2019-05-17T14:43:45.317Z,18.08
2019-05-17T14:46:18.759Z,18.13
2019-05-17T14:48:52.267Z,18.15
2019-05-17T14:51:25.699Z,18.20
2019-05-17T14:53:59.158Z,18.20
2019-05-17T14:56:32.617Z,18.22
2019-05-17T14:59:06.431Z,18.18
2019-05-17T15:27:24.758Z,17.83
2019-05-17T15:29:58.231Z,17.75
2019-05-17T15:32:31.675Z,17.72
2019-05-17T15:35:05.672Z,17.72
2019-05-17T15:37:39.089Z,17.76
2019-05-17T15:40:12.753Z,17.74
2019-05-17T15:42:46.215Z,17.79
2019-05-17T15:45:20.050Z,17.82
2019-05-17T15:47:53.472Z,17.86
2019-05-17T15:50:26.943Z,17.87
2019-05-17T15:53:00.353Z,17.90
2019-05-17T15:55:33.759Z,17.87
2019-05-17T15:58:07.221Z,17.93
2019-05-17T16:00:40.760Z,17.99
2019-05-17T16:03:14.265Z,18.00
2019-05-17T16:05:47.718Z,18.01
2019-05-17T16:08:21.498Z,18.03
2019-05-17T16:10:54.924Z,18.05
2019-05-17T16:13:28.852Z,18.07
2019-05-17T16:16:02.297Z,18.07
2019-05-17T16:18:36.003Z,18.03
2019-05-17T16:21:09.581Z,18.03
2019-05-17T16:23:43.055Z,18.03
2019-05-17T16:26:16.487Z,18.02
2019-05-17T16:28:49.930Z,18.01
2019-05-17T16:31:23.386Z,18.02
2019-05-17T16:33:57.826Z,18.04
2019-05-17T16:36:31.252Z,18.05
2019-05-17T16:39:08.319Z,18.04
2019-05-17T16:41:40.724Z,18.03
2019-05-17T16:44:14.755Z,18.04
2019-05-17T16:46:51.821Z,18.03
2019-05-17T16:49:43.627Z,18.03
2019-05-17T16:52:17.826Z,17.98
2019-05-17T16:54:52.727Z,17.99
2019-05-17T16:57:26.493Z,18.00
2019-05-17T17:00:00.451Z,18.00
2019-05-17T17:02:34.027Z,17.99
2019-05-17T17:05:07.834Z,17.98
2019-05-17T17:07:41.249Z,17.96
2019-05-17T17:10:15.093Z,17.96
2019-05-17T17:12:48.797Z,17.97
2019-05-17T17:15:22.829Z,17.95
2019-05-17T17:17:56.262Z,17.92
2019-05-17T17:20:29.984Z,17.92
2019-05-17T17:23:03.448Z,17.91
2019-05-17T17:25:36.881Z,17.91
2019-05-17T17:28:10.288Z,17.90
2019-05-17T17:30:43.750Z,17.88
2019-05-17T17:33:17.603Z,17.86
2019-05-17T17:35:51.034Z,17.84
2019-05-17T17:38:24.462Z,17.82
2019-05-17T17:40:57.891Z,17.77
2019-05-17T17:43:31.337Z,17.75
2019-05-17T17:46:04.751Z,17.74
2019-05-17T17:48:38.150Z,17.71
2019-05-17T17:51:11.818Z,17.69
2019-05-17T17:53:45.235Z,17.67
2019-05-17T17:56:18.631Z,17.65
2019-05-17T17:58:53.048Z,17.62
2019-05-17T18:01:26.487Z,17.60
2019-05-17T18:03:59.937Z,17.58
2019-05-17T18:06:33.385Z,17.51
2019-05-17T18:09:07.690Z,17.45
2019-05-17T18:11:41.107Z,17.36
2019-05-17T18:14:14.569Z,17.31
2019-05-17T18:16:48.026Z,17.26
2019-05-17T18:19:21.649Z,17.21
2019-05-17T18:21:55.082Z,17.12
2019-05-17T18:24:28.472Z,17.10
2019-05-17T18:27:01.906Z,17.05
2019-05-17T18:29:35.315Z,16.98
2019-05-17T18:32:08.744Z,16.91
2019-05-17T18:34:42.847Z,16.79
2019-05-17T18:37:16.295Z,16.72
2019-05-17T18:39:49.710Z,16.63
2019-05-17T18:42:23.110Z,16.60
2019-05-17T18:44:56.594Z,16.52
2019-05-17T18:47:30.072Z,16.43
2019-05-17T18:50:03.515Z,16.35
2019-05-17T18:52:37.114Z,16.30
2019-05-17T18:55:10.606Z,16.30
2019-05-17T18:57:44.164Z,16.25
2019-05-17T19:00:18.547Z,16.21
2019-05-17T19:02:52.061Z,16.15
2019-05-17T19:05:25.504Z,16.10
2019-05-17T19:07:59.137Z,16.04
2019-05-17T19:10:32.619Z,15.99
2019-05-17T19:13:06.068Z,15.95
2019-05-17T19:15:39.507Z,15.91
2019-05-17T19:18:13.001Z,15.84
2019-05-17T19:20:47.524Z,15.82
2019-05-17T19:23:21.088Z,15.80
2019-05-17T19:25:54.538Z,15.78
2019-05-17T19:28:28.216Z,15.74
2019-05-17T19:31:04.068Z,15.69
2019-05-17T19:33:39.238Z,15.66
2019-05-17T19:36:12.835Z,15.57
2019-05-17T19:38:48.180Z,15.56
2019-05-17T19:41:21.660Z,15.52
2019-05-17T19:43:57.115Z,15.53
2019-05-17T19:46:30.549Z,15.54
2019-05-17T19:49:05.016Z,15.48
2019-05-17T19:51:38.494Z,15.42
2019-05-17T19:54:11.961Z,15.35
2019-05-17T19:56:45.332Z,15.30
2019-05-17T19:59:18.831Z,15.26
2019-05-17T20:01:52.286Z,15.23
2019-05-17T20:04:25.784Z,15.24
2019-05-17T20:06:59.162Z,15.23
2019-05-17T20:09:32.623Z,15.21
2019-05-17T20:12:06.094Z,15.15
2019-05-17T20:14:39.520Z,15.11
2019-05-17T20:17:12.973Z,15.07
2019-05-17T20:19:46.483Z,15.01
2019-05-17T20:22:19.933Z,14.98
2019-05-17T20:24:53.422Z,15.01
2019-05-17T20:27:26.913Z,14.99
2019-05-17T20:30:00.507Z,14.96
2019-05-17T20:32:35.461Z,14.94
2019-05-17T20:35:10.351Z,14.92
2019-05-17T20:37:43.754Z,14.89
2019-05-17T20:40:18.088Z,14.85
2019-05-17T20:42:51.512Z,14.84
2019-05-17T20:45:33.263Z,14.87
2019-05-17T20:48:10.083Z,14.86
2019-05-17T20:50:43.566Z,14.83
2019-05-17T20:53:19.216Z,14.78
2019-05-17T20:55:52.059Z,14.73
2019-05-17T20:58:25.493Z,14.71
2019-05-17T21:00:59.067Z,14.71
2019-05-17T21:03:32.431Z,14.65
2019-05-17T21:06:06.488Z,14.64
2019-05-17T21:08:46.002Z,14.58
2019-05-17T21:11:15.279Z,14.55
2019-05-17T21:13:48.723Z,14.55
2019-05-17T21:16:22.239Z,14.56
2019-05-17T21:18:55.659Z,14.54
2019-05-17T21:21:29.119Z,14.51
2019-05-17T21:24:02.615Z,14.46
2019-05-17T21:26:36.125Z,14.42
2019-05-17T21:29:09.535Z,14.39
2019-05-17T21:31:42.944Z,14.37
2019-05-17T21:34:16.325Z,14.34
2019-05-17T21:36:49.804Z,14.32
2019-05-17T21:39:24.253Z,14.29
2019-05-17T21:41:57.727Z,14.24
2019-05-17T21:44:31.107Z,14.24
2019-05-17T21:47:05.205Z,14.20
2019-05-17T21:49:38.749Z,14.18
2019-05-17T21:52:13.088Z,14.11
2019-05-17T21:54:46.590Z,14.10
2019-05-17T21:57:20.390Z,14.11
2019-05-17T21:59:53.830Z,14.10
2019-05-17T22:02:27.290Z,14.07
2019-05-17T22:05:00.718Z,13.95
2019-05-17T22:07:34.233Z,13.88
2019-05-17T22:10:07.819Z,13.88
2019-05-17T22:12:41.281Z,13.90
2019-05-17T22:15:15.768Z,13.89
2019-05-17T22:17:49.217Z,13.78
2019-05-17T22:20:22.677Z,13.76
2019-05-17T22:22:55.951Z,13.79
2019-05-17T22:25:29.343Z,13.76
2019-05-17T22:28:03.065Z,13.70
2019-05-17T22:30:36.426Z,13.65
2019-05-17T22:33:09.715Z,13.62
2019-05-17T22:35:43.064Z,13.62
2019-05-17T22:38:16.436Z,13.55
2019-05-17T22:40:49.740Z,13.50
2019-05-17T22:43:23.125Z,13.52
2019-05-17T22:45:56.328Z,13.55
2019-05-17T22:48:29.705Z,13.52
2019-05-17T22:51:03.030Z,13.45
2019-05-17T22:53:36.367Z,13.43
2019-05-17T22:56:09.837Z,13.35
2019-05-17T22:58:44.552Z,13.30
2019-05-17T23:01:17.793Z,13.26
2019-05-17T23:03:51.212Z,13.28
2019-05-17T23:06:24.600Z,13.29
2019-05-17T23:08:58.031Z,13.34
2019-05-17T23:11:31.242Z,13.34
2019-05-17T23:14:04.692Z,13.33
2019-05-17T23:16:50.581Z,13.32
2019-05-17T23:19:13.107Z,13.23
2019-05-17T23:21:46.393Z,13.22
2019-05-17T23:24:20.787Z,13.21
2019-05-17T23:26:54.158Z,13.21
2019-05-17T23:29:27.430Z,13.20
2019-05-17T23:32:00.708Z,13.18
2019-05-17T23:34:34.083Z,13.14
2019-05-17T23:37:07.882Z,13.14
2019-05-17T23:39:41.232Z,13.13
2019-05-17T23:42:14.501Z,13.08
2019-05-17T23:44:48.988Z,13.07
2019-05-17T23:47:22.333Z,13.11
2019-05-17T23:49:55.723Z,13.13
2019-05-17T23:52:29.075Z,13.11
2019-05-17T23:55:02.548Z,13.09
2019-05-17T23:57:35.992Z,13.08
